sensor_id;sensor_type;location;lat;lon;timestamp;P1;durP1;ratioP1;P2;durP2;ratioP2
54247;SDS011;40161;39.768;2.722;2023-07-09T00:01:16;13.30;;;7.35;;
54247;SDS011;40161;39.768;2.722;2023-07-09T00:03:43;12.23;;;6.57;;
54247;SDS011;40161;39.768;2.722;2023-07-09T00:06:19;12.88;;;7.55;;
54247;SDS011;40161;39.768;2.722;2023-07-09T00:08:45;14.00;;;7.38;;
54247;SDS011;40161;39.768;2.722;2023-07-09T00:11:13;12.82;;;7.55;;
54247;SDS011;40161;39.768;2.722;2023-07-09T00:13:40;11.85;;;6.47;;
54247;SDS011;40161;39.768;2.722;2023-07-09T00:16:23;11.85;;;6.75;;
54247;SDS011;40161;39.768;2.722;2023-07-09T00:18:49;14.25;;;7.25;;
54247;SDS011;40161;39.768;2.722;2023-07-09T00:21:16;12.93;;;6.40;;
54247;SDS011;40161;39.768;2.722;2023-07-09T00:23:42;10.27;;;6.35;;
54247;SDS011;40161;39.768;2.722;2023-07-09T00:26:09;11.57;;;6.68;;
54247;SDS011;40161;39.768;2.722;2023-07-09T00:28:35;10.70;;;6.22;;
54247;SDS011;40161;39.768;2.722;2023-07-09T00:31:01;11.90;;;6.97;;
54247;SDS011;40161;39.768;2.722;2023-07-09T00:33:26;13.75;;;6.97;;
54247;SDS011;40161;39.768;2.722;2023-07-09T00:35:56;14.40;;;6.95;;
54247;SDS011;40161;39.768;2.722;2023-07-09T00:38:23;12.77;;;7.45;;
54247;SDS011;40161;39.768;2.722;2023-07-09T00:43:31;11.35;;;6.50;;
54247;SDS011;40161;39.768;2.722;2023-07-09T00:48:59;12.13;;;6.57;;
54247;SDS011;40161;39.768;2.722;2023-07-09T00:51:30;11.88;;;6.50;;
54247;SDS011;40161;39.768;2.722;2023-07-09T00:53:58;13.52;;;6.80;;
54247;SDS011;40161;39.768;2.722;2023-07-09T00:56:42;12.52;;;6.75;;
54247;SDS011;40161;39.768;2.722;2023-07-09T00:59:12;14.20;;;6.88;;
54247;SDS011;40161;39.768;2.722;2023-07-09T01:01:40;14.25;;;7.40;;
54247;SDS011;40161;39.768;2.722;2023-07-09T01:04:06;13.75;;;6.80;;
54247;SDS011;40161;39.768;2.722;2023-07-09T01:06:39;10.90;;;7.25;;
54247;SDS011;40161;39.768;2.722;2023-07-09T01:09:09;12.43;;;6.97;;
54247;SDS011;40161;39.768;2.722;2023-07-09T01:11:35;12.93;;;6.45;;
54247;SDS011;40161;39.768;2.722;2023-07-09T01:14:03;12.52;;;6.15;;
54247;SDS011;40161;39.768;2.722;2023-07-09T01:16:33;10.98;;;6.10;;
54247;SDS011;40161;39.768;2.722;2023-07-09T01:19:03;14.85;;;6.47;;
54247;SDS011;40161;39.768;2.722;2023-07-09T01:21:29;10.68;;;5.88;;
54247;SDS011;40161;39.768;2.722;2023-07-09T01:23:56;12.45;;;6.38;;
54247;SDS011;40161;39.768;2.722;2023-07-09T01:26:23;10.95;;;6.07;;
54247;SDS011;40161;39.768;2.722;2023-07-09T01:28:52;13.68;;;6.65;;
54247;SDS011;40161;39.768;2.722;2023-07-09T01:31:18;13.30;;;6.43;;
54247;SDS011;40161;39.768;2.722;2023-07-09T01:33:45;12.10;;;6.78;;
54247;SDS011;40161;39.768;2.722;2023-07-09T01:36:12;13.25;;;7.18;;
54247;SDS011;40161;39.768;2.722;2023-07-09T01:38:41;10.40;;;6.32;;
54247;SDS011;40161;39.768;2.722;2023-07-09T01:41:07;11.20;;;5.95;;
54247;SDS011;40161;39.768;2.722;2023-07-09T01:43:33;13.88;;;6.85;;
54247;SDS011;40161;39.768;2.722;2023-07-09T01:45:59;12.48;;;6.82;;
54247;SDS011;40161;39.768;2.722;2023-07-09T01:48:25;11.98;;;6.65;;
54247;SDS011;40161;39.768;2.722;2023-07-09T01:50:51;11.13;;;6.30;;
54247;SDS011;40161;39.768;2.722;2023-07-09T01:53:19;13.02;;;6.75;;
54247;SDS011;40161;39.768;2.722;2023-07-09T01:55:51;11.77;;;7.10;;
54247;SDS011;40161;39.768;2.722;2023-07-09T01:58:19;11.20;;;6.88;;
54247;SDS011;40161;39.768;2.722;2023-07-09T02:00:49;12.90;;;7.05;;
54247;SDS011;40161;39.768;2.722;2023-07-09T02:03:15;12.55;;;6.25;;
54247;SDS011;40161;39.768;2.722;2023-07-09T02:05:43;16.38;;;7.32;;
54247;SDS011;40161;39.768;2.722;2023-07-09T02:08:08;16.58;;;7.50;;
54247;SDS011;40161;39.768;2.722;2023-07-09T02:10:34;11.55;;;6.93;;
54247;SDS011;40161;39.768;2.722;2023-07-09T02:12:59;12.90;;;7.35;;
54247;SDS011;40161;39.768;2.722;2023-07-09T02:15:25;13.50;;;6.80;;
54247;SDS011;40161;39.768;2.722;2023-07-09T02:17:51;12.68;;;6.93;;
54247;SDS011;40161;39.768;2.722;2023-07-09T02:20:17;12.95;;;6.63;;
54247;SDS011;40161;39.768;2.722;2023-07-09T02:22:44;13.48;;;6.57;;
54247;SDS011;40161;39.768;2.722;2023-07-09T02:25:10;12.48;;;7.05;;
54247;SDS011;40161;39.768;2.722;2023-07-09T02:27:36;11.80;;;7.22;;
54247;SDS011;40161;39.768;2.722;2023-07-09T02:30:02;11.38;;;6.18;;
54247;SDS011;40161;39.768;2.722;2023-07-09T02:32:29;13.02;;;6.72;;
54247;SDS011;40161;39.768;2.722;2023-07-09T02:34:55;14.43;;;6.63;;
54247;SDS011;40161;39.768;2.722;2023-07-09T02:37:23;10.90;;;6.30;;
54247;SDS011;40161;39.768;2.722;2023-07-09T02:39:49;13.07;;;6.75;;
54247;SDS011;40161;39.768;2.722;2023-07-09T02:42:16;14.90;;;7.28;;
54247;SDS011;40161;39.768;2.722;2023-07-09T02:44:43;10.25;;;6.32;;
54247;SDS011;40161;39.768;2.722;2023-07-09T02:47:10;11.68;;;6.38;;
54247;SDS011;40161;39.768;2.722;2023-07-09T02:49:36;12.18;;;7.03;;
54247;SDS011;40161;39.768;2.722;2023-07-09T02:52:02;11.85;;;6.78;;
54247;SDS011;40161;39.768;2.722;2023-07-09T02:54:28;9.73;;;6.22;;
54247;SDS011;40161;39.768;2.722;2023-07-09T02:56:54;14.32;;;6.45;;
54247;SDS011;40161;39.768;2.722;2023-07-09T02:59:20;12.55;;;7.20;;
54247;SDS011;40161;39.768;2.722;2023-07-09T03:01:46;13.13;;;7.18;;
54247;SDS011;40161;39.768;2.722;2023-07-09T03:04:12;9.77;;;6.80;;
54247;SDS011;40161;39.768;2.722;2023-07-09T03:06:39;12.88;;;6.53;;
54247;SDS011;40161;39.768;2.722;2023-07-09T03:09:05;12.23;;;6.63;;
54247;SDS011;40161;39.768;2.722;2023-07-09T03:11:32;11.70;;;7.07;;
54247;SDS011;40161;39.768;2.722;2023-07-09T03:14:00;12.00;;;6.65;;
54247;SDS011;40161;39.768;2.722;2023-07-09T03:16:26;14.10;;;6.95;;
54247;SDS011;40161;39.768;2.722;2023-07-09T03:18:53;12.13;;;6.47;;
54247;SDS011;40161;39.768;2.722;2023-07-09T03:21:20;14.73;;;6.43;;
54247;SDS011;40161;39.768;2.722;2023-07-09T03:23:46;13.00;;;6.05;;
54247;SDS011;40161;39.768;2.722;2023-07-09T03:26:11;10.88;;;5.93;;
54247;SDS011;40161;39.768;2.722;2023-07-09T03:28:37;10.45;;;5.97;;
54247;SDS011;40161;39.768;2.722;2023-07-09T03:31:03;11.52;;;6.95;;
54247;SDS011;40161;39.768;2.722;2023-07-09T03:33:29;14.98;;;6.55;;
54247;SDS011;40161;39.768;2.722;2023-07-09T03:35:54;15.32;;;6.63;;
54247;SDS011;40161;39.768;2.722;2023-07-09T03:38:20;14.13;;;6.90;;
54247;SDS011;40161;39.768;2.722;2023-07-09T03:40:49;14.07;;;6.25;;
54247;SDS011;40161;39.768;2.722;2023-07-09T03:43:15;14.82;;;6.90;;
54247;SDS011;40161;39.768;2.722;2023-07-09T03:45:41;11.88;;;6.13;;
54247;SDS011;40161;39.768;2.722;2023-07-09T03:48:09;15.38;;;6.38;;
54247;SDS011;40161;39.768;2.722;2023-07-09T03:50:34;13.55;;;6.47;;
54247;SDS011;40161;39.768;2.722;2023-07-09T03:53:00;11.13;;;6.07;;
54247;SDS011;40161;39.768;2.722;2023-07-09T03:55:25;12.25;;;6.38;;
54247;SDS011;40161;39.768;2.722;2023-07-09T03:57:52;14.85;;;6.10;;
54247;SDS011;40161;39.768;2.722;2023-07-09T04:00:19;11.68;;;6.32;;
54247;SDS011;40161;39.768;2.722;2023-07-09T04:02:45;11.38;;;6.22;;
54247;SDS011;40161;39.768;2.722;2023-07-09T04:05:10;12.55;;;6.20;;
54247;SDS011;40161;39.768;2.722;2023-07-09T04:07:36;13.35;;;6.60;;
54247;SDS011;40161;39.768;2.722;2023-07-09T04:10:02;10.70;;;6.13;;
54247;SDS011;40161;39.768;2.722;2023-07-09T04:12:29;13.38;;;6.22;;
54247;SDS011;40161;39.768;2.722;2023-07-09T04:14:54;14.93;;;6.70;;
54247;SDS011;40161;39.768;2.722;2023-07-09T04:17:20;10.07;;;5.32;;
54247;SDS011;40161;39.768;2.722;2023-07-09T04:19:48;17.17;;;6.50;;
54247;SDS011;40161;39.768;2.722;2023-07-09T04:22:14;15.50;;;7.63;;
54247;SDS011;40161;39.768;2.722;2023-07-09T04:24:40;18.80;;;6.97;;
54247;SDS011;40161;39.768;2.722;2023-07-09T04:27:05;11.32;;;6.65;;
54247;SDS011;40161;39.768;2.722;2023-07-09T04:29:31;14.05;;;6.85;;
54247;SDS011;40161;39.768;2.722;2023-07-09T04:32:03;15.98;;;6.60;;
54247;SDS011;40161;39.768;2.722;2023-07-09T04:34:33;13.68;;;6.53;;
54247;SDS011;40161;39.768;2.722;2023-07-09T04:36:58;9.85;;;6.32;;
54247;SDS011;40161;39.768;2.722;2023-07-09T04:39:24;13.55;;;6.38;;
54247;SDS011;40161;39.768;2.722;2023-07-09T04:41:50;16.40;;;6.68;;
54247;SDS011;40161;39.768;2.722;2023-07-09T04:44:15;14.18;;;6.43;;
54247;SDS011;40161;39.768;2.722;2023-07-09T04:46:41;12.38;;;6.63;;
54247;SDS011;40161;39.768;2.722;2023-07-09T04:49:07;13.35;;;6.32;;
54247;SDS011;40161;39.768;2.722;2023-07-09T04:51:32;15.65;;;7.57;;
54247;SDS011;40161;39.768;2.722;2023-07-09T04:53:58;14.93;;;6.70;;
54247;SDS011;40161;39.768;2.722;2023-07-09T04:56:25;13.52;;;6.13;;
54247;SDS011;40161;39.768;2.722;2023-07-09T04:58:50;12.07;;;6.93;;
54247;SDS011;40161;39.768;2.722;2023-07-09T05:01:16;14.10;;;6.38;;
54247;SDS011;40161;39.768;2.722;2023-07-09T05:03:41;14.63;;;6.65;;
54247;SDS011;40161;39.768;2.722;2023-07-09T05:06:07;19.38;;;6.97;;
54247;SDS011;40161;39.768;2.722;2023-07-09T05:08:32;17.05;;;7.05;;
54247;SDS011;40161;39.768;2.722;2023-07-09T05:10:58;17.77;;;7.80;;
54247;SDS011;40161;39.768;2.722;2023-07-09T05:13:24;16.05;;;7.47;;
54247;SDS011;40161;39.768;2.722;2023-07-09T05:15:50;14.93;;;6.97;;
54247;SDS011;40161;39.768;2.722;2023-07-09T05:18:15;16.30;;;7.30;;
54247;SDS011;40161;39.768;2.722;2023-07-09T05:20:42;14.75;;;6.97;;
54247;SDS011;40161;39.768;2.722;2023-07-09T05:23:08;14.75;;;7.25;;
54247;SDS011;40161;39.768;2.722;2023-07-09T05:25:35;17.95;;;7.47;;
54247;SDS011;40161;39.768;2.722;2023-07-09T05:28:01;18.00;;;7.72;;
54247;SDS011;40161;39.768;2.722;2023-07-09T05:30:27;17.50;;;7.10;;
54247;SDS011;40161;39.768;2.722;2023-07-09T05:32:53;20.88;;;7.40;;
54247;SDS011;40161;39.768;2.722;2023-07-09T05:35:21;11.02;;;6.50;;
54247;SDS011;40161;39.768;2.722;2023-07-09T05:37:46;13.40;;;7.07;;
54247;SDS011;40161;39.768;2.722;2023-07-09T05:40:12;15.07;;;6.95;;
54247;SDS011;40161;39.768;2.722;2023-07-09T05:42:38;14.23;;;6.78;;
54247;SDS011;40161;39.768;2.722;2023-07-09T05:45:03;12.82;;;6.82;;
54247;SDS011;40161;39.768;2.722;2023-07-09T05:47:29;14.63;;;6.38;;
54247;SDS011;40161;39.768;2.722;2023-07-09T05:49:55;17.63;;;7.45;;
54247;SDS011;40161;39.768;2.722;2023-07-09T05:52:21;14.95;;;7.15;;
54247;SDS011;40161;39.768;2.722;2023-07-09T05:54:49;18.98;;;7.03;;
54247;SDS011;40161;39.768;2.722;2023-07-09T05:57:16;16.10;;;7.40;;
54247;SDS011;40161;39.768;2.722;2023-07-09T05:59:42;17.17;;;7.55;;
54247;SDS011;40161;39.768;2.722;2023-07-09T06:02:14;15.00;;;7.28;;
54247;SDS011;40161;39.768;2.722;2023-07-09T06:04:41;16.75;;;7.15;;
54247;SDS011;40161;39.768;2.722;2023-07-09T06:07:07;19.80;;;6.68;;
54247;SDS011;40161;39.768;2.722;2023-07-09T06:09:34;13.25;;;6.00;;
54247;SDS011;40161;39.768;2.722;2023-07-09T06:12:01;13.63;;;6.80;;
54247;SDS011;40161;39.768;2.722;2023-07-09T06:14:28;13.32;;;6.50;;
54247;SDS011;40161;39.768;2.722;2023-07-09T06:16:53;14.57;;;6.68;;
54247;SDS011;40161;39.768;2.722;2023-07-09T06:19:19;15.00;;;6.60;;
54247;SDS011;40161;39.768;2.722;2023-07-09T06:21:44;15.55;;;6.80;;
54247;SDS011;40161;39.768;2.722;2023-07-09T06:24:10;16.50;;;6.78;;
54247;SDS011;40161;39.768;2.722;2023-07-09T06:26:36;15.80;;;6.07;;
54247;SDS011;40161;39.768;2.722;2023-07-09T06:29:02;14.43;;;6.38;;
54247;SDS011;40161;39.768;2.722;2023-07-09T06:31:28;12.73;;;5.95;;
54247;SDS011;40161;39.768;2.722;2023-07-09T06:33:56;10.52;;;5.93;;
54247;SDS011;40161;39.768;2.722;2023-07-09T06:36:22;12.80;;;6.25;;
54247;SDS011;40161;39.768;2.722;2023-07-09T06:38:48;15.10;;;6.43;;
54247;SDS011;40161;39.768;2.722;2023-07-09T06:41:14;12.68;;;5.80;;
54247;SDS011;40161;39.768;2.722;2023-07-09T06:43:40;20.20;;;6.72;;
54247;SDS011;40161;39.768;2.722;2023-07-09T06:46:09;16.38;;;6.68;;
54247;SDS011;40161;39.768;2.722;2023-07-09T06:48:37;13.57;;;6.32;;
54247;SDS011;40161;39.768;2.722;2023-07-09T06:51:02;10.77;;;6.57;;
54247;SDS011;40161;39.768;2.722;2023-07-09T06:53:29;16.50;;;8.25;;
54247;SDS011;40161;39.768;2.722;2023-07-09T06:55:55;21.00;;;6.68;;
54247;SDS011;40161;39.768;2.722;2023-07-09T06:58:28;15.15;;;7.00;;
54247;SDS011;40161;39.768;2.722;2023-07-09T07:00:56;16.98;;;6.43;;
54247;SDS011;40161;39.768;2.722;2023-07-09T07:03:23;14.20;;;6.68;;
54247;SDS011;40161;39.768;2.722;2023-07-09T07:05:50;14.40;;;5.68;;
54247;SDS011;40161;39.768;2.722;2023-07-09T07:08:22;15.55;;;6.80;;
54247;SDS011;40161;39.768;2.722;2023-07-09T07:10:49;13.32;;;5.50;;
54247;SDS011;40161;39.768;2.722;2023-07-09T07:13:26;13.38;;;6.05;;
54247;SDS011;40161;39.768;2.722;2023-07-09T07:15:52;17.33;;;6.50;;
54247;SDS011;40161;39.768;2.722;2023-07-09T07:18:18;15.00;;;6.70;;
54247;SDS011;40161;39.768;2.722;2023-07-09T07:20:44;15.13;;;5.88;;
54247;SDS011;40161;39.768;2.722;2023-07-09T07:23:09;14.68;;;5.72;;
54247;SDS011;40161;39.768;2.722;2023-07-09T07:25:35;14.68;;;6.85;;
54247;SDS011;40161;39.768;2.722;2023-07-09T07:28:01;13.30;;;6.00;;
54247;SDS011;40161;39.768;2.722;2023-07-09T07:30:26;16.83;;;9.10;;
54247;SDS011;40161;39.768;2.722;2023-07-09T07:32:52;22.55;;;13.40;;
54247;SDS011;40161;39.768;2.722;2023-07-09T07:35:17;27.70;;;14.63;;
54247;SDS011;40161;39.768;2.722;2023-07-09T07:37:44;23.85;;;11.60;;
54247;SDS011;40161;39.768;2.722;2023-07-09T07:40:10;15.55;;;8.15;;
54247;SDS011;40161;39.768;2.722;2023-07-09T07:42:36;36.08;;;21.50;;
54247;SDS011;40161;39.768;2.722;2023-07-09T07:45:02;31.08;;;18.63;;
54247;SDS011;40161;39.768;2.722;2023-07-09T07:47:28;22.92;;;12.95;;
54247;SDS011;40161;39.768;2.722;2023-07-09T07:49:55;18.77;;;6.43;;
54247;SDS011;40161;39.768;2.722;2023-07-09T07:52:22;14.30;;;6.32;;
54247;SDS011;40161;39.768;2.722;2023-07-09T07:54:48;15.68;;;6.32;;
54247;SDS011;40161;39.768;2.722;2023-07-09T07:57:13;13.40;;;5.43;;
54247;SDS011;40161;39.768;2.722;2023-07-09T07:59:39;16.38;;;6.32;;
54247;SDS011;40161;39.768;2.722;2023-07-09T08:02:06;12.35;;;5.22;;
54247;SDS011;40161;39.768;2.722;2023-07-09T08:04:35;12.48;;;6.05;;
54247;SDS011;40161;39.768;2.722;2023-07-09T08:07:01;12.48;;;6.55;;
54247;SDS011;40161;39.768;2.722;2023-07-09T08:09:27;13.27;;;5.60;;
54247;SDS011;40161;39.768;2.722;2023-07-09T08:11:52;17.45;;;6.03;;
54247;SDS011;40161;39.768;2.722;2023-07-09T08:14:18;12.68;;;5.45;;
54247;SDS011;40161;39.768;2.722;2023-07-09T08:16:44;16.85;;;6.15;;
54247;SDS011;40161;39.768;2.722;2023-07-09T08:19:09;16.55;;;6.00;;
54247;SDS011;40161;39.768;2.722;2023-07-09T08:21:35;12.82;;;6.00;;
54247;SDS011;40161;39.768;2.722;2023-07-09T08:24:01;15.35;;;5.63;;
54247;SDS011;40161;39.768;2.722;2023-07-09T08:26:27;13.02;;;5.85;;
54247;SDS011;40161;39.768;2.722;2023-07-09T08:28:53;12.68;;;5.90;;
54247;SDS011;40161;39.768;2.722;2023-07-09T08:31:19;14.38;;;5.95;;
54247;SDS011;40161;39.768;2.722;2023-07-09T08:33:44;16.35;;;5.95;;
54247;SDS011;40161;39.768;2.722;2023-07-09T08:36:10;14.20;;;5.85;;
54247;SDS011;40161;39.768;2.722;2023-07-09T08:38:36;12.88;;;5.93;;
54247;SDS011;40161;39.768;2.722;2023-07-09T08:41:15;13.52;;;5.20;;
54247;SDS011;40161;39.768;2.722;2023-07-09T08:49:18;15.65;;;5.88;;
54247;SDS011;40161;39.768;2.722;2023-07-09T08:51:52;13.85;;;5.95;;
54247;SDS011;40161;39.768;2.722;2023-07-09T08:54:28;15.23;;;5.32;;
54247;SDS011;40161;39.768;2.722;2023-07-09T08:56:59;15.57;;;5.30;;
54247;SDS011;40161;39.768;2.722;2023-07-09T08:59:42;15.10;;;5.88;;
54247;SDS011;40161;39.768;2.722;2023-07-09T09:02:14;18.02;;;5.50;;
54247;SDS011;40161;39.768;2.722;2023-07-09T09:04:51;15.70;;;5.70;;
54247;SDS011;40161;39.768;2.722;2023-07-09T09:10:02;12.10;;;5.32;;
54247;SDS011;40161;39.768;2.722;2023-07-09T09:15:09;13.35;;;5.22;;
54247;SDS011;40161;39.768;2.722;2023-07-09T09:17:40;11.65;;;6.05;;
54247;SDS011;40161;39.768;2.722;2023-07-09T09:20:21;11.75;;;5.40;;
54247;SDS011;40161;39.768;2.722;2023-07-09T09:25:32;11.45;;;5.28;;
54247;SDS011;40161;39.768;2.722;2023-07-09T09:27:59;10.05;;;5.25;;
54247;SDS011;40161;39.768;2.722;2023-07-09T09:30:25;13.00;;;5.45;;
54247;SDS011;40161;39.768;2.722;2023-07-09T09:32:59;12.88;;;5.55;;
54247;SDS011;40161;39.768;2.722;2023-07-09T09:37:53;17.65;;;5.47;;
54247;SDS011;40161;39.768;2.722;2023-07-09T09:40:20;15.48;;;5.47;;
54247;SDS011;40161;39.768;2.722;2023-07-09T09:42:48;13.57;;;5.72;;
54247;SDS011;40161;39.768;2.722;2023-07-09T09:45:20;15.63;;;5.13;;
54247;SDS011;40161;39.768;2.722;2023-07-09T09:47:47;16.67;;;6.28;;
54247;SDS011;40161;39.768;2.722;2023-07-09T09:50:17;15.30;;;5.50;;
54247;SDS011;40161;39.768;2.722;2023-07-09T09:52:47;16.55;;;6.00;;
54247;SDS011;40161;39.768;2.722;2023-07-09T09:55:22;17.23;;;6.07;;
54247;SDS011;40161;39.768;2.722;2023-07-09T09:57:50;15.25;;;6.07;;
54247;SDS011;40161;39.768;2.722;2023-07-09T10:00:19;16.88;;;6.00;;
54247;SDS011;40161;39.768;2.722;2023-07-09T10:02:47;17.05;;;5.65;;
54247;SDS011;40161;39.768;2.722;2023-07-09T10:05:20;14.40;;;5.63;;
54247;SDS011;40161;39.768;2.722;2023-07-09T10:10:26;11.02;;;5.15;;
54247;SDS011;40161;39.768;2.722;2023-07-09T10:13:05;15.57;;;5.80;;
54247;SDS011;40161;39.768;2.722;2023-07-09T10:18:33;13.90;;;5.78;;
54247;SDS011;40161;39.768;2.722;2023-07-09T10:21:54;16.52;;;5.60;;
54247;SDS011;40161;39.768;2.722;2023-07-09T10:35:01;17.27;;;5.53;;
54247;SDS011;40161;39.768;2.722;2023-07-09T10:40:16;15.63;;;5.72;;
54247;SDS011;40161;39.768;2.722;2023-07-09T10:42:52;17.85;;;5.45;;
54247;SDS011;40161;39.768;2.722;2023-07-09T10:45:46;11.60;;;5.47;;
54247;SDS011;40161;39.768;2.722;2023-07-09T10:48:18;13.17;;;6.13;;
54247;SDS011;40161;39.768;2.722;2023-07-09T10:50:54;15.93;;;5.22;;
54247;SDS011;40161;39.768;2.722;2023-07-09T10:56:07;14.60;;;5.55;;
54247;SDS011;40161;39.768;2.722;2023-07-09T11:02:12;12.10;;;5.03;;
54247;SDS011;40161;39.768;2.722;2023-07-09T11:04:41;17.50;;;5.78;;
54247;SDS011;40161;39.768;2.722;2023-07-09T11:07:12;14.20;;;5.03;;
54247;SDS011;40161;39.768;2.722;2023-07-09T11:09:42;16.10;;;5.03;;
54247;SDS011;40161;39.768;2.722;2023-07-09T11:12:31;13.55;;;5.45;;
54247;SDS011;40161;39.768;2.722;2023-07-09T11:15:16;13.45;;;5.25;;
54247;SDS011;40161;39.768;2.722;2023-07-09T11:17:57;17.38;;;5.28;;
54247;SDS011;40161;39.768;2.722;2023-07-09T11:20:25;14.40;;;5.57;;
54247;SDS011;40161;39.768;2.722;2023-07-09T11:23:01;19.15;;;5.43;;
54247;SDS011;40161;39.768;2.722;2023-07-09T11:25:48;13.90;;;5.32;;
54247;SDS011;40161;39.768;2.722;2023-07-09T11:28:33;13.13;;;5.20;;
54247;SDS011;40161;39.768;2.722;2023-07-09T11:31:04;20.10;;;5.70;;
54247;SDS011;40161;39.768;2.722;2023-07-09T11:33:32;15.10;;;4.90;;
54247;SDS011;40161;39.768;2.722;2023-07-09T11:36:08;15.48;;;6.18;;
54247;SDS011;40161;39.768;2.722;2023-07-09T11:38:41;14.50;;;5.45;;
54247;SDS011;40161;39.768;2.722;2023-07-09T11:44:10;14.70;;;5.25;;
54247;SDS011;40161;39.768;2.722;2023-07-09T11:46:40;11.93;;;4.80;;
54247;SDS011;40161;39.768;2.722;2023-07-09T11:49:14;16.05;;;5.25;;
54247;SDS011;40161;39.768;2.722;2023-07-09T11:51:40;14.13;;;5.15;;
54247;SDS011;40161;39.768;2.722;2023-07-09T11:54:13;12.50;;;4.65;;
54247;SDS011;40161;39.768;2.722;2023-07-09T11:56:39;11.25;;;5.03;;
54247;SDS011;40161;39.768;2.722;2023-07-09T11:59:05;15.18;;;4.90;;
54247;SDS011;40161;39.768;2.722;2023-07-09T12:01:44;17.50;;;5.35;;
54247;SDS011;40161;39.768;2.722;2023-07-09T12:04:15;14.85;;;5.25;;
54247;SDS011;40161;39.768;2.722;2023-07-09T12:06:42;15.40;;;5.43;;
54247;SDS011;40161;39.768;2.722;2023-07-09T12:09:18;12.35;;;5.25;;
54247;SDS011;40161;39.768;2.722;2023-07-09T12:11:49;14.60;;;5.25;;
54247;SDS011;40161;39.768;2.722;2023-07-09T12:14:20;14.45;;;5.40;;
54247;SDS011;40161;39.768;2.722;2023-07-09T12:16:51;16.58;;;5.82;;
54247;SDS011;40161;39.768;2.722;2023-07-09T12:19:18;16.50;;;5.03;;
54247;SDS011;40161;39.768;2.722;2023-07-09T12:21:48;18.48;;;5.90;;
54247;SDS011;40161;39.768;2.722;2023-07-09T12:26:56;12.90;;;5.38;;
54247;SDS011;40161;39.768;2.722;2023-07-09T12:29:24;11.82;;;5.20;;
54247;SDS011;40161;39.768;2.722;2023-07-09T12:31:51;13.18;;;4.90;;
54247;SDS011;40161;39.768;2.722;2023-07-09T12:34:16;14.35;;;5.07;;
54247;SDS011;40161;39.768;2.722;2023-07-09T12:36:46;18.63;;;5.25;;
54247;SDS011;40161;39.768;2.722;2023-07-09T12:39:15;20.60;;;5.68;;
54247;SDS011;40161;39.768;2.722;2023-07-09T12:41:45;13.23;;;4.75;;
54247;SDS011;40161;39.768;2.722;2023-07-09T12:44:14;15.40;;;5.88;;
54247;SDS011;40161;39.768;2.722;2023-07-09T12:46:45;13.52;;;5.55;;
54247;SDS011;40161;39.768;2.722;2023-07-09T12:49:20;11.25;;;4.68;;
54247;SDS011;40161;39.768;2.722;2023-07-09T12:52:14;17.25;;;5.45;;
54247;SDS011;40161;39.768;2.722;2023-07-09T12:54:51;15.15;;;5.10;;
54247;SDS011;40161;39.768;2.722;2023-07-09T12:57:27;14.85;;;4.75;;
54247;SDS011;40161;39.768;2.722;2023-07-09T12:59:55;12.90;;;5.00;;
54247;SDS011;40161;39.768;2.722;2023-07-09T13:04:49;17.45;;;5.10;;
54247;SDS011;40161;39.768;2.722;2023-07-09T13:07:26;13.43;;;5.00;;
54247;SDS011;40161;39.768;2.722;2023-07-09T13:09:56;15.30;;;5.10;;
54247;SDS011;40161;39.768;2.722;2023-07-09T13:12:30;11.73;;;4.50;;
54247;SDS011;40161;39.768;2.722;2023-07-09T13:14:56;12.73;;;4.90;;
54247;SDS011;40161;39.768;2.722;2023-07-09T13:17:22;12.43;;;5.05;;
54247;SDS011;40161;39.768;2.722;2023-07-09T13:19:48;14.32;;;4.53;;
54247;SDS011;40161;39.768;2.722;2023-07-09T13:22:15;14.30;;;4.68;;
54247;SDS011;40161;39.768;2.722;2023-07-09T13:24:44;14.25;;;5.35;;
54247;SDS011;40161;39.768;2.722;2023-07-09T13:27:14;10.43;;;4.47;;
54247;SDS011;40161;39.768;2.722;2023-07-09T13:29:41;15.68;;;4.63;;
54247;SDS011;40161;39.768;2.722;2023-07-09T13:32:12;14.38;;;5.05;;
54247;SDS011;40161;39.768;2.722;2023-07-09T13:34:39;11.93;;;4.10;;
54247;SDS011;40161;39.768;2.722;2023-07-09T13:37:15;13.45;;;5.10;;
54247;SDS011;40161;39.768;2.722;2023-07-09T13:39:41;18.00;;;5.15;;
54247;SDS011;40161;39.768;2.722;2023-07-09T13:42:17;15.25;;;5.07;;
54247;SDS011;40161;39.768;2.722;2023-07-09T13:44:44;14.07;;;5.00;;
54247;SDS011;40161;39.768;2.722;2023-07-09T13:47:12;11.50;;;4.30;;
54247;SDS011;40161;39.768;2.722;2023-07-09T13:49:43;10.10;;;4.88;;
54247;SDS011;40161;39.768;2.722;2023-07-09T13:52:14;15.02;;;4.85;;
54247;SDS011;40161;39.768;2.722;2023-07-09T13:54:42;13.77;;;5.03;;
54247;SDS011;40161;39.768;2.722;2023-07-09T13:57:13;12.23;;;4.15;;
54247;SDS011;40161;39.768;2.722;2023-07-09T13:59:41;12.68;;;4.53;;
54247;SDS011;40161;39.768;2.722;2023-07-09T14:02:17;14.40;;;5.38;;
54247;SDS011;40161;39.768;2.722;2023-07-09T14:04:49;16.27;;;4.80;;
54247;SDS011;40161;39.768;2.722;2023-07-09T14:07:36;16.25;;;4.82;;
54247;SDS011;40161;39.768;2.722;2023-07-09T14:10:03;14.02;;;5.10;;
54247;SDS011;40161;39.768;2.722;2023-07-09T14:12:31;13.80;;;4.22;;
54247;SDS011;40161;39.768;2.722;2023-07-09T14:14:58;12.93;;;4.90;;
54247;SDS011;40161;39.768;2.722;2023-07-09T14:17:26;13.93;;;4.55;;
54247;SDS011;40161;39.768;2.722;2023-07-09T14:19:52;13.02;;;4.13;;
54247;SDS011;40161;39.768;2.722;2023-07-09T14:22:20;12.00;;;3.88;;
54247;SDS011;40161;39.768;2.722;2023-07-09T14:24:57;11.15;;;4.05;;
54247;SDS011;40161;39.768;2.722;2023-07-09T14:27:25;11.00;;;3.50;;
54247;SDS011;40161;39.768;2.722;2023-07-09T14:29:51;11.55;;;4.32;;
54247;SDS011;40161;39.768;2.722;2023-07-09T14:32:33;10.45;;;3.90;;
54247;SDS011;40161;39.768;2.722;2023-07-09T14:35:01;9.45;;;3.85;;
54247;SDS011;40161;39.768;2.722;2023-07-09T14:37:29;12.73;;;4.25;;
54247;SDS011;40161;39.768;2.722;2023-07-09T14:39:54;13.25;;;4.13;;
54247;SDS011;40161;39.768;2.722;2023-07-09T14:42:20;13.23;;;4.30;;
54247;SDS011;40161;39.768;2.722;2023-07-09T14:44:47;13.90;;;3.78;;
54247;SDS011;40161;39.768;2.722;2023-07-09T14:47:18;12.70;;;4.38;;
54247;SDS011;40161;39.768;2.722;2023-07-09T14:49:45;14.25;;;4.57;;
54247;SDS011;40161;39.768;2.722;2023-07-09T14:52:12;14.05;;;4.30;;
54247;SDS011;40161;39.768;2.722;2023-07-09T14:54:43;12.30;;;4.30;;
54247;SDS011;40161;39.768;2.722;2023-07-09T14:57:22;13.05;;;4.65;;
54247;SDS011;40161;39.768;2.722;2023-07-09T14:59:52;11.02;;;4.13;;
54247;SDS011;40161;39.768;2.722;2023-07-09T15:04:48;13.35;;;4.75;;
54247;SDS011;40161;39.768;2.722;2023-07-09T15:07:14;14.27;;;4.45;;
54247;SDS011;40161;39.768;2.722;2023-07-09T15:09:40;13.27;;;4.10;;
54247;SDS011;40161;39.768;2.722;2023-07-09T15:12:08;13.73;;;4.65;;
54247;SDS011;40161;39.768;2.722;2023-07-09T15:14:47;12.23;;;4.00;;
54247;SDS011;40161;39.768;2.722;2023-07-09T15:17:13;11.68;;;4.03;;
54247;SDS011;40161;39.768;2.722;2023-07-09T15:19:41;12.23;;;4.60;;
54247;SDS011;40161;39.768;2.722;2023-07-09T15:22:17;15.35;;;4.40;;
54247;SDS011;40161;39.768;2.722;2023-07-09T15:24:50;11.23;;;3.95;;
54247;SDS011;40161;39.768;2.722;2023-07-09T15:27:16;13.45;;;4.20;;
54247;SDS011;40161;39.768;2.722;2023-07-09T15:29:41;8.75;;;3.78;;
54247;SDS011;40161;39.768;2.722;2023-07-09T15:32:07;13.18;;;3.95;;
54247;SDS011;40161;39.768;2.722;2023-07-09T15:34:32;11.13;;;4.18;;
54247;SDS011;40161;39.768;2.722;2023-07-09T15:36:58;12.35;;;4.32;;
54247;SDS011;40161;39.768;2.722;2023-07-09T15:39:24;15.20;;;4.40;;